sensor_id;sensor_type;location;lat;lon;timestamp;pressure;altitude;pressure_sealevel;temperature;humidity
11108;BME280;5607;48.302;14.294;2024-02-14T00:00:49;59411.84;;;-143.53;100.00
11108;BME280;5607;48.302;14.294;2024-02-14T00:03:35;59411.84;;;-143.53;100.00
11108;BME280;5607;48.302;14.294;2024-02-14T00:06:23;59411.84;;;-143.53;100.00
11108;BME280;5607;48.302;14.294;2024-02-14T00:09:10;59411.84;;;-143.53;100.00
11108;BME280;5607;48.302;14.294;2024-02-14T00:11:57;59411.84;;;-143.53;100.00
11108;BME280;5607;48.302;14.294;2024-02-14T00:14:45;59411.84;;;-143.53;100.00
11108;BME280;5607;48.302;14.294;2024-02-14T00:17:32;59411.84;;;-143.53;100.00
11108;BME280;5607;48.302;14.294;2024-02-14T00:20:20;59411.84;;;-143.53;100.00
11108;BME280;5607;48.302;14.294;2024-02-14T00:23:08;59411.84;;;-143.53;100.00
11108;BME280;5607;48.302;14.294;2024-02-14T00:25:54;59411.84;;;-143.53;100.00
11108;BME280;5607;48.302;14.294;2024-02-14T00:28:41;59411.84;;;-143.53;100.00
11108;BME280;5607;48.302;14.294;2024-02-14T00:31:28;59411.84;;;-143.53;100.00
11108;BME280;5607;48.302;14.294;2024-02-14T00:34:14;59411.84;;;-143.53;100.00
11108;BME280;5607;48.302;14.294;2024-02-14T00:37:01;59411.84;;;-143.53;100.00
11108;BME280;5607;48.302;14.294;2024-02-14T00:39:48;59411.84;;;-143.53;100.00
11108;BME280;5607;48.302;14.294;2024-02-14T00:42:36;59411.84;;;-143.53;100.00
11108;BME280;5607;48.302;14.294;2024-02-14T00:45:23;59411.84;;;-143.53;100.00
11108;BME280;5607;48.302;14.294;2024-02-14T00:48:09;59411.84;;;-143.53;100.00
11108;BME280;5607;48.302;14.294;2024-02-14T00:50:57;59411.84;;;-143.53;100.00
11108;BME280;5607;48.302;14.294;2024-02-14T00:53:43;59411.84;;;-143.53;100.00
11108;BME280;5607;48.302;14.294;2024-02-14T00:56:30;59411.84;;;-143.53;100.00
11108;BME280;5607;48.302;14.294;2024-02-14T00:59:16;59411.84;;;-143.53;100.00
11108;BME280;5607;48.302;14.294;2024-02-14T01:02:03;59411.84;;;-143.53;100.00
11108;BME280;5607;48.302;14.294;2024-02-14T01:04:49;59411.84;;;-143.53;100.00
11108;BME280;5607;48.302;14.294;2024-02-14T01:07:36;59411.84;;;-143.53;100.00
11108;BME280;5607;48.302;14.294;2024-02-14T01:10:23;59411.84;;;-143.53;100.00
11108;BME280;5607;48.302;14.294;2024-02-14T01:13:09;59411.84;;;-143.53;100.00
11108;BME280;5607;48.302;14.294;2024-02-14T01:15:56;59411.84;;;-143.53;100.00
11108;BME280;5607;48.302;14.294;2024-02-14T01:18:43;59411.84;;;-143.53;100.00
11108;BME280;5607;48.302;14.294;2024-02-14T01:21:30;59411.84;;;-143.53;100.00
11108;BME280;5607;48.302;14.294;2024-02-14T01:24:16;59411.84;;;-143.53;100.00
11108;BME280;5607;48.302;14.294;2024-02-14T01:27:03;59411.84;;;-143.53;100.00
11108;BME280;5607;48.302;14.294;2024-02-14T01:29:50;59411.84;;;-143.53;100.00
11108;BME280;5607;48.302;14.294;2024-02-14T01:32:37;59411.84;;;-143.53;100.00
11108;BME280;5607;48.302;14.294;2024-02-14T01:35:24;59411.84;;;-143.53;100.00
11108;BME280;5607;48.302;14.294;2024-02-14T01:38:11;59411.84;;;-143.53;100.00
11108;BME280;5607;48.302;14.294;2024-02-14T01:40:59;59411.84;;;-143.53;100.00
11108;BME280;5607;48.302;14.294;2024-02-14T01:43:45;59411.84;;;-143.53;100.00
11108;BME280;5607;48.302;14.294;2024-02-14T01:46:32;59411.84;;;-143.53;100.00
11108;BME280;5607;48.302;14.294;2024-02-14T01:49:19;59411.84;;;-143.53;100.00
11108;BME280;5607;48.302;14.294;2024-02-14T01:52:06;59411.84;;;-143.53;100.00
11108;BME280;5607;48.302;14.294;2024-02-14T01:54:53;59411.84;;;-143.53;100.00
11108;BME280;5607;48.302;14.294;2024-02-14T01:57:41;59411.84;;;-143.53;100.00
11108;BME280;5607;48.302;14.294;2024-02-14T02:00:28;59411.84;;;-143.53;100.00
11108;BME280;5607;48.302;14.294;2024-02-14T02:03:14;59411.84;;;-143.53;100.00
11108;BME280;5607;48.302;14.294;2024-02-14T02:06:01;59411.84;;;-143.53;100.00
11108;BME280;5607;48.302;14.294;2024-02-14T02:08:48;59411.84;;;-143.53;100.00
11108;BME280;5607;48.302;14.294;2024-02-14T02:11:52;59411.84;;;-143.53;100.00
11108;BME280;5607;48.302;14.294;2024-02-14T02:14:42;59411.84;;;-143.53;100.00
11108;BME280;5607;48.302;14.294;2024-02-14T02:17:28;59411.84;;;-143.53;100.00
11108;BME280;5607;48.302;14.294;2024-02-14T02:20:15;59411.84;;;-143.53;100.00
11108;BME280;5607;48.302;14.294;2024-02-14T02:23:03;59411.84;;;-143.53;100.00
11108;BME280;5607;48.302;14.294;2024-02-14T02:25:51;59411.84;;;-143.53;100.00
11108;BME280;5607;48.302;14.294;2024-02-14T02:28:37;59411.84;;;-143.53;100.00
11108;BME280;5607;48.302;14.294;2024-02-14T02:31:26;59411.84;;;-143.53;100.00
11108;BME280;5607;48.302;14.294;2024-02-14T02:34:12;59411.84;;;-143.53;100.00
11108;BME280;5607;48.302;14.294;2024-02-14T02:36:59;59411.84;;;-143.53;100.00
11108;BME280;5607;48.302;14.294;2024-02-14T02:39:46;59411.84;;;-143.53;100.00
11108;BME280;5607;48.302;14.294;2024-02-14T02:42:32;59411.84;;;-143.53;100.00
11108;BME280;5607;48.302;14.294;2024-02-14T02:45:19;59411.84;;;-143.53;100.00
11108;BME280;5607;48.302;14.294;2024-02-14T02:48:06;59411.84;;;-143.53;100.00
11108;BME280;5607;48.302;14.294;2024-02-14T02:50:53;59411.84;;;-143.53;100.00
11108;BME280;5607;48.302;14.294;2024-02-14T02:53:40;59411.84;;;-143.53;100.00
11108;BME280;5607;48.302;14.294;2024-02-14T02:56:27;59411.84;;;-143.53;100.00
11108;BME280;5607;48.302;14.294;2024-02-14T02:59:14;59411.84;;;-143.53;100.00
11108;BME280;5607;48.302;14.294;2024-02-14T03:02:03;59411.84;;;-143.53;100.00
11108;BME280;5607;48.302;14.294;2024-02-14T03:04:53;59411.84;;;-143.53;100.00
11108;BME280;5607;48.302;14.294;2024-02-14T03:07:39;59411.84;;;-143.53;100.00
11108;BME280;5607;48.302;14.294;2024-02-14T03:10:27;59411.84;;;-143.53;100.00
11108;BME280;5607;48.302;14.294;2024-02-14T03:13:15;59411.84;;;-143.53;100.00
11108;BME280;5607;48.302;14.294;2024-02-14T03:16:03;59411.84;;;-143.53;100.00
11108;BME280;5607;48.302;14.294;2024-02-14T03:18:50;59411.84;;;-143.53;100.00
11108;BME280;5607;48.302;14.294;2024-02-14T03:21:40;59411.84;;;-143.53;100.00
11108;BME280;5607;48.302;14.294;2024-02-14T03:24:26;59411.84;;;-143.53;100.00
11108;BME280;5607;48.302;14.294;2024-02-14T03:27:13;59411.84;;;-143.53;100.00
11108;BME280;5607;48.302;14.294;2024-02-14T03:30:00;59411.84;;;-143.53;100.00
11108;BME280;5607;48.302;14.294;2024-02-14T03:32:50;59411.84;;;-143.53;100.00
11108;BME280;5607;48.302;14.294;2024-02-14T03:35:37;59411.84;;;-143.53;100.00
11108;BME280;5607;48.302;14.294;2024-02-14T03:38:25;59411.84;;;-143.53;100.00
11108;BME280;5607;48.302;14.294;2024-02-14T03:41:12;59411.84;;;-143.53;100.00
11108;BME280;5607;48.302;14.294;2024-02-14T03:44:02;59411.84;;;-143.53;100.00
11108;BME280;5607;48.302;14.294;2024-02-14T03:46:50;59411.84;;;-143.53;100.00
11108;BME280;5607;48.302;14.294;2024-02-14T03:49:36;59411.84;;;-143.53;100.00
11108;BME280;5607;48.302;14.294;2024-02-14T03:52:23;59411.84;;;-143.53;100.00
11108;BME280;5607;48.302;14.294;2024-02-14T03:55:10;59411.84;;;-143.53;100.00
11108;BME280;5607;48.302;14.294;2024-02-14T03:58:01;59411.84;;;-143.53;100.00
11108;BME280;5607;48.302;14.294;2024-02-14T04:00:49;59411.84;;;-143.53;100.00
11108;BME280;5607;48.302;14.294;2024-02-14T04:03:36;59411.84;;;-143.53;100.00
11108;BME280;5607;48.302;14.294;2024-02-14T04:06:23;59411.84;;;-143.53;100.00
11108;BME280;5607;48.302;14.294;2024-02-14T04:09:11;59411.84;;;-143.53;100.00
11108;BME280;5607;48.302;14.294;2024-02-14T04:11:57;59411.84;;;-143.53;100.00
11108;BME280;5607;48.302;14.294;2024-02-14T04:14:44;59411.84;;;-143.53;100.00
11108;BME280;5607;48.302;14.294;2024-02-14T04:17:30;59411.84;;;-143.53;100.00
11108;BME280;5607;48.302;14.294;2024-02-14T04:20:17;59411.84;;;-143.53;100.00
11108;BME280;5607;48.302;14.294;2024-02-14T04:23:04;59411.84;;;-143.53;100.00
11108;BME280;5607;48.302;14.294;2024-02-14T04:25:53;59411.84;;;-143.53;100.00
11108;BME280;5607;48.302;14.294;2024-02-14T04:28:39;59411.84;;;-143.53;100.00
11108;BME280;5607;48.302;14.294;2024-02-14T04:31:27;59411.84;;;-143.53;100.00
11108;BME280;5607;48.302;14.294;2024-02-14T04:34:15;59411.84;;;-143.53;100.00
11108;BME280;5607;48.302;14.294;2024-02-14T04:37:02;59411.84;;;-143.53;100.00
11108;BME280;5607;48.302;14.294;2024-02-14T04:39:56;59411.84;;;-143.53;100.00
11108;BME280;5607;48.302;14.294;2024-02-14T04:42:43;59411.84;;;-143.53;100.00
11108;BME280;5607;48.302;14.294;2024-02-14T04:45:30;59411.84;;;-143.53;100.00
11108;BME280;5607;48.302;14.294;2024-02-14T04:48:16;59411.84;;;-143.53;100.00
11108;BME280;5607;48.302;14.294;2024-02-14T04:51:04;59411.84;;;-143.53;100.00
11108;BME280;5607;48.302;14.294;2024-02-14T04:53:51;59411.84;;;-143.53;100.00
11108;BME280;5607;48.302;14.294;2024-02-14T04:56:38;59411.84;;;-143.53;100.00
11108;BME280;5607;48.302;14.294;2024-02-14T04:59:25;59411.84;;;-143.53;100.00
11108;BME280;5607;48.302;14.294;2024-02-14T05:02:11;59411.84;;;-143.53;100.00
11108;BME280;5607;48.302;14.294;2024-02-14T05:04:58;59411.84;;;-143.53;100.00
11108;BME280;5607;48.302;14.294;2024-02-14T05:07:46;59411.84;;;-143.53;100.00
11108;BME280;5607;48.302;14.294;2024-02-14T05:10:33;59411.84;;;-143.53;100.00
11108;BME280;5607;48.302;14.294;2024-02-14T05:13:19;59411.84;;;-143.53;100.00
11108;BME280;5607;48.302;14.294;2024-02-14T05:16:06;59411.84;;;-143.53;100.00
11108;BME280;5607;48.302;14.294;2024-02-14T05:18:54;59411.84;;;-143.53;100.00
11108;BME280;5607;48.302;14.294;2024-02-14T05:21:41;59411.84;;;-143.53;100.00
11108;BME280;5607;48.302;14.294;2024-02-14T05:24:28;59411.84;;;-143.53;100.00
11108;BME280;5607;48.302;14.294;2024-02-14T05:27:15;59411.84;;;-143.53;100.00
11108;BME280;5607;48.302;14.294;2024-02-14T05:30:02;59411.84;;;-143.53;100.00
11108;BME280;5607;48.302;14.294;2024-02-14T05:32:52;59411.84;;;-143.53;100.00
11108;BME280;5607;48.302;14.294;2024-02-14T05:35:39;59411.84;;;-143.53;100.00
11108;BME280;5607;48.302;14.294;2024-02-14T05:38:26;59411.84;;;-143.53;100.00
11108;BME280;5607;48.302;14.294;2024-02-14T05:41:13;59411.84;;;-143.53;100.00
11108;BME280;5607;48.302;14.294;2024-02-14T05:44:00;59411.84;;;-143.53;100.00
11108;BME280;5607;48.302;14.294;2024-02-14T05:46:46;59411.84;;;-143.53;100.00
11108;BME280;5607;48.302;14.294;2024-02-14T05:49:34;59411.84;;;-143.53;100.00
11108;BME280;5607;48.302;14.294;2024-02-14T05:52:20;59411.84;;;-143.53;100.00
11108;BME280;5607;48.302;14.294;2024-02-14T05:55:08;59411.84;;;-143.53;100.00
11108;BME280;5607;48.302;14.294;2024-02-14T05:57:55;59411.84;;;-143.53;100.00
11108;BME280;5607;48.302;14.294;2024-02-14T06:00:43;59411.84;;;-143.53;100.00
11108;BME280;5607;48.302;14.294;2024-02-14T06:03:30;59411.84;;;-143.53;100.00
11108;BME280;5607;48.302;14.294;2024-02-14T06:06:16;59411.84;;;-143.53;100.00
11108;BME280;5607;48.302;14.294;2024-02-14T06:09:03;59411.84;;;-143.53;100.00
11108;BME280;5607;48.302;14.294;2024-02-14T06:11:56;59411.84;;;-143.53;100.00
11108;BME280;5607;48.302;14.294;2024-02-14T06:14:42;59411.84;;;-143.53;100.00
11108;BME280;5607;48.302;14.294;2024-02-14T06:17:29;59411.84;;;-143.53;100.00
11108;BME280;5607;48.302;14.294;2024-02-14T06:20:15;59411.84;;;-143.53;100.00
11108;BME280;5607;48.302;14.294;2024-02-14T06:23:02;59411.84;;;-143.53;100.00
11108;BME280;5607;48.302;14.294;2024-02-14T06:25:48;59411.84;;;-143.53;100.00
11108;BME280;5607;48.302;14.294;2024-02-14T06:28:35;59411.84;;;-143.53;100.00
11108;BME280;5607;48.302;14.294;2024-02-14T06:31:22;59411.84;;;-143.53;100.00
11108;BME280;5607;48.302;14.294;2024-02-14T06:34:09;59411.84;;;-143.53;100.00
11108;BME280;5607;48.302;14.294;2024-02-14T06:36:56;59411.84;;;-143.53;100.00
11108;BME280;5607;48.302;14.294;2024-02-14T06:39:43;59411.84;;;-143.53;100.00
11108;BME280;5607;48.302;14.294;2024-02-14T06:42:30;59411.84;;;-143.53;100.00
11108;BME280;5607;48.302;14.294;2024-02-14T06:45:17;59411.84;;;-143.53;100.00
11108;BME280;5607;48.302;14.294;2024-02-14T06:48:04;59411.84;;;-143.53;100.00
11108;BME280;5607;48.302;14.294;2024-02-14T06:50:51;59411.84;;;-143.53;100.00
11108;BME280;5607;48.302;14.294;2024-02-14T06:53:39;59411.84;;;-143.53;100.00
11108;BME280;5607;48.302;14.294;2024-02-14T06:56:25;59411.84;;;-143.53;100.00
11108;BME280;5607;48.302;14.294;2024-02-14T06:59:12;59411.84;;;-143.53;100.00
11108;BME280;5607;48.302;14.294;2024-02-14T07:01:59;59411.84;;;-143.53;100.00
11108;BME280;5607;48.302;14.294;2024-02-14T07:04:45;59411.84;;;-143.53;100.00
11108;BME280;5607;48.302;14.294;2024-02-14T07:07:32;59411.84;;;-143.53;100.00
11108;BME280;5607;48.302;14.294;2024-02-14T07:10:18;59411.84;;;-143.53;100.00
11108;BME280;5607;48.302;14.294;2024-02-14T07:13:05;59411.84;;;-143.53;100.00
11108;BME280;5607;48.302;14.294;2024-02-14T07:15:52;59411.84;;;-143.53;100.00
11108;BME280;5607;48.302;14.294;2024-02-14T07:18:39;59411.84;;;-143.53;100.00
11108;BME280;5607;48.302;14.294;2024-02-14T07:21:26;59411.84;;;-143.53;100.00
11108;BME280;5607;48.302;14.294;2024-02-14T07:24:13;59411.84;;;-143.53;100.00
11108;BME280;5607;48.302;14.294;2024-02-14T07:26:59;59411.84;;;-143.53;100.00
11108;BME280;5607;48.302;14.294;2024-02-14T07:29:46;59411.84;;;-143.53;100.00
11108;BME280;5607;48.302;14.294;2024-02-14T07:32:34;59411.84;;;-143.53;100.00
11108;BME280;5607;48.302;14.294;2024-02-14T07:35:23;59411.84;;;-143.53;100.00
11108;BME280;5607;48.302;14.294;2024-02-14T07:38:09;59411.84;;;-143.53;100.00
11108;BME280;5607;48.302;14.294;2024-02-14T07:40:56;59411.84;;;-143.53;100.00
11108;BME280;5607;48.302;14.294;2024-02-14T07:43:42;59411.84;;;-143.53;100.00
11108;BME280;5607;48.302;14.294;2024-02-14T07:46:29;59411.84;;;-143.53;100.00
11108;BME280;5607;48.302;14.294;2024-02-14T07:49:19;59411.84;;;-143.53;100.00
11108;BME280;5607;48.302;14.294;2024-02-14T07:52:07;59411.84;;;-143.53;100.00
11108;BME280;5607;48.302;14.294;2024-02-14T07:54:54;59411.84;;;-143.53;100.00
11108;BME280;5607;48.302;14.294;2024-02-14T07:57:41;59411.84;;;-143.53;100.00
11108;BME280;5607;48.302;14.294;2024-02-14T08:00:28;59411.84;;;-143.53;100.00
11108;BME280;5607;48.302;14.294;2024-02-14T08:03:15;59411.84;;;-143.53;100.00
11108;BME280;5607;48.302;14.294;2024-02-14T08:06:01;59411.84;;;-143.53;100.00
11108;BME280;5607;48.302;14.294;2024-02-14T08:08:48;59411.84;;;-143.53;100.00
11108;BME280;5607;48.302;14.294;2024-02-14T08:11:40;59411.84;;;-143.53;100.00
11108;BME280;5607;48.302;14.294;2024-02-14T08:14:27;59411.84;;;-143.53;100.00
11108;BME280;5607;48.302;14.294;2024-02-14T08:17:15;59411.84;;;-143.53;100.00
11108;BME280;5607;48.302;14.294;2024-02-14T08:20:03;59411.84;;;-143.53;100.00
11108;BME280;5607;48.302;14.294;2024-02-14T08:22:50;59411.84;;;-143.53;100.00
11108;BME280;5607;48.302;14.294;2024-02-14T08:25:37;59411.84;;;-143.53;100.00
11108;BME280;5607;48.302;14.294;2024-02-14T08:28:24;59411.84;;;-143.53;100.00
11108;BME280;5607;48.302;14.294;2024-02-14T08:31:11;59411.84;;;-143.53;100.00
11108;BME280;5607;48.302;14.294;2024-02-14T08:33:58;59411.84;;;-143.53;100.00
11108;BME280;5607;48.302;14.294;2024-02-14T08:36:45;59411.84;;;-143.53;100.00
11108;BME280;5607;48.302;14.294;2024-02-14T08:39:31;59411.84;;;-143.53;100.00
11108;BME280;5607;48.302;14.294;2024-02-14T08:42:18;59411.84;;;-143.53;100.00
11108;BME280;5607;48.302;14.294;2024-02-14T08:45:05;59411.84;;;-143.53;100.00
11108;BME280;5607;48.302;14.294;2024-02-14T08:47:51;59411.84;;;-143.53;100.00
11108;BME280;5607;48.302;14.294;2024-02-14T08:50:38;59411.84;;;-143.53;100.00
11108;BME280;5607;48.302;14.294;2024-02-14T08:53:26;59411.84;;;-143.53;100.00
11108;BME280;5607;48.302;14.294;2024-02-14T08:56:13;59411.84;;;-143.53;100.00
11108;BME280;5607;48.302;14.294;2024-02-14T08:59:01;59411.84;;;-143.53;100.00
11108;BME280;5607;48.302;14.294;2024-02-14T09:01:48;59411.84;;;-143.53;100.00
11108;BME280;5607;48.302;14.294;2024-02-14T09:04:35;59411.84;;;-143.53;100.00
11108;BME280;5607;48.302;14.294;2024-02-14T09:07:21;59411.84;;;-143.53;100.00
11108;BME280;5607;48.302;14.294;2024-02-14T09:10:08;59411.84;;;-143.53;100.00
11108;BME280;5607;48.302;14.294;2024-02-14T09:12:57;59411.84;;;-143.53;100.00
11108;BME280;5607;48.302;14.294;2024-02-14T09:15:43;59411.84;;;-143.53;100.00
11108;BME280;5607;48.302;14.294;2024-02-14T09:18:30;59411.84;;;-143.53;100.00
11108;BME280;5607;48.302;14.294;2024-02-14T09:21:18;59411.84;;;-143.53;100.00
11108;BME280;5607;48.302;14.294;2024-02-14T09:24:06;59411.84;;;-143.53;100.00
11108;BME280;5607;48.302;14.294;2024-02-14T09:26:53;59411.84;;;-143.53;100.00
11108;BME280;5607;48.302;14.294;2024-02-14T09:29:40;59411.84;;;-143.53;100.00
11108;BME280;5607;48.302;14.294;2024-02-14T09:32:27;59411.84;;;-143.53;100.00
11108;BME280;5607;48.302;14.294;2024-02-14T09:35:13;59411.84;;;-143.53;100.00
11108;BME280;5607;48.302;14.294;2024-02-14T09:38:00;59411.84;;;-143.53;100.00
11108;BME280;5607;48.302;14.294;2024-02-14T09:40:48;59411.84;;;-143.53;100.00
11108;BME280;5607;48.302;14.294;2024-02-14T09:43:40;59411.84;;;-143.53;100.00
11108;BME280;5607;48.302;14.294;2024-02-14T09:46:29;59411.84;;;-143.53;100.00
11108;BME280;5607;48.302;14.294;2024-02-14T09:49:17;59411.84;;;-143.53;100.00
11108;BME280;5607;48.302;14.294;2024-02-14T09:52:06;59411.84;;;-143.53;100.00
11108;BME280;5607;48.302;14.294;2024-02-14T09:54:55;59411.84;;;-143.53;100.00
11108;BME280;5607;48.302;14.294;2024-02-14T09:57:42;59411.84;;;-143.53;100.00
11108;BME280;5607;48.302;14.294;2024-02-14T10:00:31;59411.84;;;-143.53;100.00
11108;BME280;5607;48.302;14.294;2024-02-14T10:03:18;59411.84;;;-143.53;100.00
11108;BME280;5607;48.302;14.294;2024-02-14T10:06:05;59411.84;;;-143.53;100.00
11108;BME280;5607;48.302;14.294;2024-02-14T10:08:51;59411.84;;;-143.53;100.00
11108;BME280;5607;48.302;14.294;2024-02-14T10:11:38;59411.84;;;-143.53;100.00
11108;BME280;5607;48.302;14.294;2024-02-14T10:14:26;59411.84;;;-143.53;100.00
11108;BME280;5607;48.302;14.294;2024-02-14T10:17:19;59411.84;;;-143.53;100.00
11108;BME280;5607;48.302;14.294;2024-02-14T10:20:06;59411.84;;;-143.53;100.00
11108;BME280;5607;48.302;14.294;2024-02-14T10:23:00;59411.84;;;-143.53;100.00
11108;BME280;5607;48.302;14.294;2024-02-14T10:25:52;59411.84;;;-143.53;100.00
11108;BME280;5607;48.302;14.294;2024-02-14T10:28:43;59411.84;;;-143.53;100.00
11108;BME280;5607;48.302;14.294;2024-02-14T10:31:30;59411.84;;;-143.53;100.00
11108;BME280;5607;48.302;14.294;2024-02-14T10:34:18;59411.84;;;-143.53;100.00
11108;BME280;5607;48.302;14.294;2024-02-14T10:37:05;59411.84;;;-143.53;100.00
11108;BME280;5607;48.302;14.294;2024-02-14T10:39:53;59411.84;;;-143.53;100.00
11108;BME280;5607;48.302;14.294;2024-02-14T10:42:42;59411.84;;;-143.53;100.00
11108;BME280;5607;48.302;14.294;2024-02-14T10:45:28;59411.84;;;-143.53;100.00
11108;BME280;5607;48.302;14.294;2024-02-14T10:48:15;59411.84;;;-143.53;100.00
11108;BME280;5607;48.302;14.294;2024-02-14T10:51:04;59411.84;;;-143.53;100.00
11108;BME280;5607;48.302;14.294;2024-02-14T10:53:53;59411.84;;;-143.53;100.00
11108;BME280;5607;48.302;14.294;2024-02-14T10:56:45;59411.84;;;-143.53;100.00
11108;BME280;5607;48.302;14.294;2024-02-14T10:59:35;59411.84;;;-143.53;100.00
11108;BME280;5607;48.302;14.294;2024-02-14T11:02:23;59411.84;;;-143.53;100.00
11108;BME280;5607;48.302;14.294;2024-02-14T11:05:14;59411.84;;;-143.53;100.00
11108;BME280;5607;48.302;14.294;2024-02-14T11:08:10;59411.84;;;-143.53;100.00
11108;BME280;5607;48.302;14.294;2024-02-14T11:10:58;59411.84;;;-143.53;100.00
11108;BME280;5607;48.302;14.294;2024-02-14T11:13:45;59411.84;;;-143.53;100.00
11108;BME280;5607;48.302;14.294;2024-02-14T11:16:32;59411.84;;;-143.53;100.00
11108;BME280;5607;48.302;14.294;2024-02-14T11:19:33;59411.84;;;-143.53;100.00
11108;BME280;5607;48.302;14.294;2024-02-14T11:22:21;59411.84;;;-143.53;100.00
11108;BME280;5607;48.302;14.294;2024-02-14T11:25:14;59411.84;;;-143.53;100.00
11108;BME280;5607;48.302;14.294;2024-02-14T11:28:25;59411.84;;;-143.53;100.00
11108;BME280;5607;48.302;14.294;2024-02-14T11:31:16;59411.84;;;-143.53;100.00
11108;BME280;5607;48.302;14.294;2024-02-14T11:34:04;59411.84;;;-143.53;100.00
11108;BME280;5607;48.302;14.294;2024-02-14T11:36:51;59411.84;;;-143.53;100.00
11108;BME280;5607;48.302;14.294;2024-02-14T11:39:38;59411.84;;;-143.53;100.00
11108;BME280;5607;48.302;14.294;2024-02-14T11:42:25;59411.84;;;-143.53;100.00
11108;BME280;5607;48.302;14.294;2024-02-14T11:45:12;59411.84;;;-143.53;100.00
11108;BME280;5607;48.302;14.294;2024-02-14T11:47:58;59411.84;;;-143.53;100.00
11108;BME280;5607;48.302;14.294;2024-02-14T11:50:45;59411.84;;;-143.53;100.00
11108;BME280;5607;48.302;14.294;2024-02-14T11:53:32;59411.84;;;-143.53;100.00
11108;BME280;5607;48.302;14.294;2024-02-14T11:56:21;59411.84;;;-143.53;100.00
11108;BME280;5607;48.302;14.294;2024-02-14T11:59:08;59411.84;;;-143.53;100.00
11108;BME280;5607;48.302;14.294;2024-02-14T12:01:56;59411.84;;;-143.53;100.00
11108;BME280;5607;48.302;14.294;2024-02-14T12:04:44;59411.84;;;-143.53;100.00
11108;BME280;5607;48.302;14.294;2024-02-14T12:07:31;59411.84;;;-143.53;100.00
11108;BME280;5607;48.302;14.294;2024-02-14T12:10:19;59411.84;;;-143.53;100.00
11108;BME280;5607;48.302;14.294;2024-02-14T12:13:12;59411.84;;;-143.53;100.00
11108;BME280;5607;48.302;14.294;2024-02-14T12:16:00;59411.84;;;-143.53;100.00
11108;BME280;5607;48.302;14.294;2024-02-14T12:18:49;59411.84;;;-143.53;100.00
11108;BME280;5607;48.302;14.294;2024-02-14T12:21:36;59411.84;;;-143.53;100.00
11108;BME280;5607;48.302;14.294;2024-02-14T12:24:23;59411.84;;;-143.53;100.00
11108;BME280;5607;48.302;14.294;2024-02-14T12:27:10;59411.84;;;-143.53;100.00
11108;BME280;5607;48.302;14.294;2024-02-14T12:29:57;59411.84;;;-143.53;100.00
11108;BME280;5607;48.302;14.294;2024-02-14T12:32:43;59411.84;;;-143.53;100.00
11108;BME280;5607;48.302;14.294;2024-02-14T12:35:30;59411.84;;;-143.53;100.00
11108;BME280;5607;48.302;14.294;2024-02-14T12:38:18;59411.84;;;-143.53;100.00
11108;BME280;5607;48.302;14.294;2024-02-14T12:41:05;59411.84;;;-143.53;100.00
11108;BME280;5607;48.302;14.294;2024-02-14T12:43:52;59411.84;;;-143.53;100.00
11108;BME280;5607;48.302;14.294;2024-02-14T12:46:40;59411.84;;;-143.53;100.00
11108;BME280;5607;48.302;14.294;2024-02-14T12:49:27;59411.84;;;-143.53;100.00
11108;BME280;5607;48.302;14.294;2024-02-14T12:52:13;59411.84;;;-143.53;100.00
11108;BME280;5607;48.302;14.294;2024-02-14T12:55:00;59411.84;;;-143.53;100.00
11108;BME280;5607;48.302;14.294;2024-02-14T12:57:47;59411.84;;;-143.53;100.00
11108;BME280;5607;48.302;14.294;2024-02-14T13:00:34;59411.84;;;-143.53;100.00
11108;BME280;5607;48.302;14.294;2024-02-14T13:03:22;59411.84;;;-143.53;100.00
11108;BME280;5607;48.302;14.294;2024-02-14T13:06:09;59411.84;;;-143.53;100.00
11108;BME280;5607;48.302;14.294;2024-02-14T13:08:56;59411.84;;;-143.53;100.00
11108;BME280;5607;48.302;14.294;2024-02-14T13:11:43;59411.84;;;-143.53;100.00
11108;BME280;5607;48.302;14.294;2024-02-14T13:14:29;59411.84;;;-143.53;100.00
11108;BME280;5607;48.302;14.294;2024-02-14T13:17:18;59411.84;;;-143.53;100.00
11108;BME280;5607;48.302;14.294;2024-02-14T13:20:05;75221.78;;;-143.52;32.67
11108;BME280;5607;48.302;14.294;2024-02-14T13:22:52;75266.06;;;-143.52;32.91
11108;BME280;5607;48.302;14.294;2024-02-14T13:25:39;75270.06;;;-143.52;33.07
11108;BME280;5607;48.302;14.294;2024-02-14T13:28:25;75286.03;;;-143.52;33.22
11108;BME280;5607;48.302;14.294;2024-02-14T13:31:13;75302.00;;;-143.52;33.37
11108;BME280;5607;48.302;14.294;2024-02-14T13:34:00;75292.00;;;-143.52;33.50
11108;BME280;5607;48.302;14.294;2024-02-14T13:36:49;75304.00;;;-143.52;33.53
11108;BME280;5607;48.302;14.294;2024-02-14T13:39:36;75341.91;;;-143.52;33.53
11108;BME280;5607;48.302;14.294;2024-02-14T13:42:23;75341.91;;;-143.52;33.63
11108;BME280;5607;48.302;14.294;2024-02-14T13:45:09;75363.88;;;-143.52;33.54
11108;BME280;5607;48.302;14.294;2024-02-14T13:48:03;75323.94;;;-143.52;33.47
11108;BME280;5607;48.302;14.294;2024-02-14T13:50:53;75307.97;;;-143.52;33.45
11108;BME280;5607;48.302;14.294;2024-02-14T13:53:40;75298.00;;;-143.52;33.49
11108;BME280;5607;48.302;14.294;2024-02-14T13:56:29;75333.94;;;-143.52;34.01
11108;BME280;5607;48.302;14.294;2024-02-14T13:59:17;75302.00;;;-143.52;33.60
11108;BME280;5607;48.302;14.294;2024-02-14T14:02:04;75375.84;;;-143.52;33.69
11108;BME280;5607;48.302;14.294;2024-02-14T14:04:51;75300.00;;;-143.52;33.44
11108;BME280;5607;48.302;14.294;2024-02-14T14:07:39;75258.09;;;-143.52;32.90
11108;BME280;5607;48.302;14.294;2024-02-14T14:10:27;75276.03;;;-143.52;32.99
11108;BME280;5607;48.302;14.294;2024-02-14T14:13:14;75248.09;;;-143.52;32.85